sensor_id;sensor_type;location;lat;lon;timestamp;pressure;altitude;pressure_sealevel;temperature;humidity
69842;BME280;57138;51.326;-0.068;2022-12-07T00:02:04;100485.91;;;3.54;88.28
69842;BME280;57138;51.326;-0.068;2022-12-07T00:04:29;100502.22;;;3.69;88.98
69842;BME280;57138;51.326;-0.068;2022-12-07T00:06:55;100505.72;;;3.70;88.41
69842;BME280;57138;51.326;-0.068;2022-12-07T00:09:20;100509.31;;;3.69;88.62
69842;BME280;57138;51.326;-0.068;2022-12-07T00:11:49;100500.28;;;3.62;88.10
69842;BME280;57138;51.326;-0.068;2022-12-07T00:14:15;100496.91;;;3.59;88.53
69842;BME280;57138;51.326;-0.068;2022-12-07T00:16:41;100510.00;;;3.71;88.79
69842;BME280;57138;51.326;-0.068;2022-12-07T00:19:09;100446.34;;;3.33;88.37
69842;BME280;57138;51.326;-0.068;2022-12-07T00:21:35;100458.47;;;3.36;88.70
69842;BME280;57138;51.326;-0.068;2022-12-07T00:24:03;100485.22;;;3.52;88.56
69842;BME280;57138;51.326;-0.068;2022-12-07T00:26:31;100510.31;;;3.68;88.08
69842;BME280;57138;51.326;-0.068;2022-12-07T00:28:59;100507.94;;;3.65;88.32
69842;BME280;57138;51.326;-0.068;2022-12-07T00:31:27;100460.16;;;3.37;88.16
69842;BME280;57138;51.326;-0.068;2022-12-07T00:33:53;100438.94;;;3.17;87.94
69842;BME280;57138;51.326;-0.068;2022-12-07T00:36:21;100503.88;;;3.60;88.43
69842;BME280;57138;51.326;-0.068;2022-12-07T00:38:47;100504.84;;;3.59;87.96
69842;BME280;57138;51.326;-0.068;2022-12-07T00:41:15;100498.88;;;3.57;88.04
69842;BME280;57138;51.326;-0.068;2022-12-07T00:43:42;100508.63;;;3.57;88.48
69842;BME280;57138;51.326;-0.068;2022-12-07T00:46:08;100505.13;;;3.56;87.98
69842;BME280;57138;51.326;-0.068;2022-12-07T00:48:33;100485.78;;;3.46;88.57
69842;BME280;57138;51.326;-0.068;2022-12-07T00:51:00;100503.59;;;3.54;88.05
69842;BME280;57138;51.326;-0.068;2022-12-07T00:53:26;100486.72;;;3.45;88.51
69842;BME280;57138;51.326;-0.068;2022-12-07T00:55:52;100427.28;;;3.10;88.35
69842;BME280;57138;51.326;-0.068;2022-12-07T00:58:18;100469.88;;;3.36;88.54
69842;BME280;57138;51.326;-0.068;2022-12-07T01:00:44;100492.44;;;3.50;87.96
69842;BME280;57138;51.326;-0.068;2022-12-07T01:03:12;100474.75;;;3.41;88.17
69842;BME280;57138;51.326;-0.068;2022-12-07T01:05:37;100468.78;;;3.39;88.08
69842;BME280;57138;51.326;-0.068;2022-12-07T01:08:03;100483.53;;;3.51;88.03
69842;BME280;57138;51.326;-0.068;2022-12-07T01:10:29;100474.06;;;3.39;88.49
69842;BME280;57138;51.326;-0.068;2022-12-07T01:12:56;100462.06;;;3.35;87.74
69842;BME280;57138;51.326;-0.068;2022-12-07T01:15:21;100480.47;;;3.46;88.12
69842;BME280;57138;51.326;-0.068;2022-12-07T01:17:47;100467.34;;;3.35;88.03
69842;BME280;57138;51.326;-0.068;2022-12-07T01:20:13;100460.97;;;3.28;88.08
69842;BME280;57138;51.326;-0.068;2022-12-07T01:22:39;100435.34;;;3.18;88.47
69842;BME280;57138;51.326;-0.068;2022-12-07T01:25:07;100477.66;;;3.38;88.39
69842;BME280;57138;51.326;-0.068;2022-12-07T01:27:34;100474.59;;;3.33;88.11
69842;BME280;57138;51.326;-0.068;2022-12-07T01:30:00;100479.34;;;3.39;88.60
69842;BME280;57138;51.326;-0.068;2022-12-07T01:32:26;100483.81;;;3.38;88.42
69842;BME280;57138;51.326;-0.068;2022-12-07T01:34:52;100471.97;;;3.33;88.30
69842;BME280;57138;51.326;-0.068;2022-12-07T01:37:17;100478.78;;;3.35;88.70
69842;BME280;57138;51.326;-0.068;2022-12-07T01:39:43;100454.13;;;3.15;88.11
69842;BME280;57138;51.326;-0.068;2022-12-07T01:42:10;100436.00;;;3.01;88.33
69842;BME280;57138;51.326;-0.068;2022-12-07T01:47:59;100479.53;;;3.16;88.43
69842;BME280;57138;51.326;-0.068;2022-12-07T01:50:27;100471.47;;;3.08;88.09
69842;BME280;57138;51.326;-0.068;2022-12-07T01:52:55;100496.66;;;3.12;88.21
69842;BME280;57138;51.326;-0.068;2022-12-07T01:55:22;100462.47;;;2.90;88.07
69842;BME280;57138;51.326;-0.068;2022-12-07T01:57:49;100490.94;;;3.07;87.92
69842;BME280;57138;51.326;-0.068;2022-12-07T02:00:16;100451.06;;;2.79;88.47
69842;BME280;57138;51.326;-0.068;2022-12-07T02:02:47;100463.75;;;2.85;88.04
69842;BME280;57138;51.326;-0.068;2022-12-07T02:05:13;100482.81;;;2.99;88.50
69842;BME280;57138;51.326;-0.068;2022-12-07T02:07:39;100483.34;;;2.93;88.61
69842;BME280;57138;51.326;-0.068;2022-12-07T02:10:16;100489.22;;;2.96;88.38
69842;BME280;57138;51.326;-0.068;2022-12-07T02:12:47;100477.25;;;2.92;88.57
69842;BME280;57138;51.326;-0.068;2022-12-07T02:15:13;100454.66;;;2.78;88.47
69842;BME280;57138;51.326;-0.068;2022-12-07T02:17:51;100474.47;;;2.94;88.81
69842;BME280;57138;51.326;-0.068;2022-12-07T02:28:34;100461.38;;;2.82;88.93
69842;BME280;57138;51.326;-0.068;2022-12-07T02:31:19;100451.00;;;2.69;89.02
69842;BME280;57138;51.326;-0.068;2022-12-07T02:33:51;100451.13;;;2.68;88.94
69842;BME280;57138;51.326;-0.068;2022-12-07T02:36:32;100414.34;;;2.45;88.74
69842;BME280;57138;51.326;-0.068;2022-12-07T02:39:05;100465.78;;;2.82;89.16
69842;BME280;57138;51.326;-0.068;2022-12-07T02:41:38;100464.97;;;2.81;89.54
69842;BME280;57138;51.326;-0.068;2022-12-07T02:44:10;100457.44;;;2.77;89.06
69842;BME280;57138;51.326;-0.068;2022-12-07T02:46:43;100469.56;;;2.79;88.91
69842;BME280;57138;51.326;-0.068;2022-12-07T02:49:10;100464.41;;;2.78;89.41
69842;BME280;57138;51.326;-0.068;2022-12-07T02:51:41;100442.09;;;2.61;89.25
69842;BME280;57138;51.326;-0.068;2022-12-07T02:54:18;100447.09;;;2.64;89.11
69842;BME280;57138;51.326;-0.068;2022-12-07T02:56:48;100453.78;;;2.68;89.27
69842;BME280;57138;51.326;-0.068;2022-12-07T03:08:00;100451.84;;;2.70;89.80
69842;BME280;57138;51.326;-0.068;2022-12-07T03:10:35;100467.69;;;2.70;89.73
69842;BME280;57138;51.326;-0.068;2022-12-07T03:18:31;100423.69;;;2.49;89.92
69842;BME280;57138;51.326;-0.068;2022-12-07T03:21:02;100447.94;;;2.64;89.40
69842;BME280;57138;51.326;-0.068;2022-12-07T03:23:32;100439.63;;;2.69;89.46
69842;BME280;57138;51.326;-0.068;2022-12-07T03:26:00;100405.63;;;2.45;89.41
69842;BME280;57138;51.326;-0.068;2022-12-07T03:28:31;100445.03;;;2.67;89.47
69842;BME280;57138;51.326;-0.068;2022-12-07T03:31:02;100427.03;;;2.51;89.71
69842;BME280;57138;51.326;-0.068;2022-12-07T03:33:36;100445.69;;;2.60;89.36
69842;BME280;57138;51.326;-0.068;2022-12-07T03:36:15;100455.97;;;2.63;89.76
69842;BME280;57138;51.326;-0.068;2022-12-07T03:38:49;100424.09;;;2.45;90.21
69842;BME280;57138;51.326;-0.068;2022-12-07T03:41:25;100432.56;;;2.48;90.03
69842;BME280;57138;51.326;-0.068;2022-12-07T03:43:53;100442.59;;;2.55;90.38
69842;BME280;57138;51.326;-0.068;2022-12-07T03:46:42;100445.69;;;2.60;90.65
69842;BME280;57138;51.326;-0.068;2022-12-07T03:49:43;100433.59;;;2.57;90.00
69842;BME280;57138;51.326;-0.068;2022-12-07T03:52:21;100401.69;;;2.39;90.24
69842;BME280;57138;51.326;-0.068;2022-12-07T03:54:59;100438.03;;;2.57;90.39
69842;BME280;57138;51.326;-0.068;2022-12-07T03:57:27;100433.00;;;2.54;90.33
69842;BME280;57138;51.326;-0.068;2022-12-07T03:59:55;100432.31;;;2.51;90.34
69842;BME280;57138;51.326;-0.068;2022-12-07T04:02:22;100422.28;;;2.45;90.94
69842;BME280;57138;51.326;-0.068;2022-12-07T04:04:49;100419.75;;;2.44;90.10
69842;BME280;57138;51.326;-0.068;2022-12-07T04:07:14;100415.44;;;2.43;90.21
69842;BME280;57138;51.326;-0.068;2022-12-07T04:09:40;100386.06;;;2.26;90.37
69842;BME280;57138;51.326;-0.068;2022-12-07T04:12:05;100413.66;;;2.43;90.51
69842;BME280;57138;51.326;-0.068;2022-12-07T04:14:31;100386.63;;;2.30;90.65
69842;BME280;57138;51.326;-0.068;2022-12-07T04:17:01;100422.00;;;2.48;90.22
69842;BME280;57138;51.326;-0.068;2022-12-07T04:19:30;100421.75;;;2.51;90.34
69842;BME280;57138;51.326;-0.068;2022-12-07T04:21:56;100397.50;;;2.37;90.44
69842;BME280;57138;51.326;-0.068;2022-12-07T04:24:22;100421.75;;;2.51;89.84
69842;BME280;57138;51.326;-0.068;2022-12-07T04:26:47;100416.44;;;2.42;90.17
69842;BME280;57138;51.326;-0.068;2022-12-07T04:29:13;100431.47;;;2.51;90.07
69842;BME280;57138;51.326;-0.068;2022-12-07T04:31:39;100423.97;;;2.46;90.12
69842;BME280;57138;51.326;-0.068;2022-12-07T04:34:05;100421.31;;;2.46;90.25
69842;BME280;57138;51.326;-0.068;2022-12-07T04:36:31;100435.91;;;2.50;90.30
69842;BME280;57138;51.326;-0.068;2022-12-07T04:38:57;100412.94;;;2.41;90.41
69842;BME280;57138;51.326;-0.068;2022-12-07T04:41:23;100432.31;;;2.51;90.46
69842;BME280;57138;51.326;-0.068;2022-12-07T04:43:54;100427.03;;;2.51;90.26
69842;BME280;57138;51.326;-0.068;2022-12-07T04:46:20;100439.28;;;2.53;90.79
69842;BME280;57138;51.326;-0.068;2022-12-07T04:48:45;100418.94;;;2.43;90.84
69842;BME280;57138;51.326;-0.068;2022-12-07T04:51:11;100424.78;;;2.47;90.63
69842;BME280;57138;51.326;-0.068;2022-12-07T04:53:36;100436.38;;;2.56;90.56
69842;BME280;57138;51.326;-0.068;2022-12-07T04:56:01;100409.22;;;2.44;90.88
69842;BME280;57138;51.326;-0.068;2022-12-07T04:58:27;100424.81;;;2.57;90.27
69842;BME280;57138;51.326;-0.068;2022-12-07T05:00:55;100405.63;;;2.45;90.54
69842;BME280;57138;51.326;-0.068;2022-12-07T05:03:21;100425.69;;;2.57;90.56
69842;BME280;57138;51.326;-0.068;2022-12-07T05:05:46;100418.69;;;2.46;90.92
69842;BME280;57138;51.326;-0.068;2022-12-07T05:08:11;100404.59;;;2.36;90.93
69842;BME280;57138;51.326;-0.068;2022-12-07T05:10:36;100419.09;;;2.51;90.91
69842;BME280;57138;51.326;-0.068;2022-12-07T05:13:02;100421.06;;;2.49;90.37
69842;BME280;57138;51.326;-0.068;2022-12-07T05:15:27;100432.03;;;2.55;90.83
69842;BME280;57138;51.326;-0.068;2022-12-07T05:17:53;100390.94;;;2.31;90.56
69842;BME280;57138;51.326;-0.068;2022-12-07T05:20:18;100383.03;;;2.31;90.94
69842;BME280;57138;51.326;-0.068;2022-12-07T05:22:43;100378.41;;;2.23;90.99
69842;BME280;57138;51.326;-0.068;2022-12-07T05:25:09;100392.47;;;2.33;90.77
69842;BME280;57138;51.326;-0.068;2022-12-07T05:27:34;100397.19;;;2.30;90.62
69842;BME280;57138;51.326;-0.068;2022-12-07T05:30:00;100402.91;;;2.35;90.75
69842;BME280;57138;51.326;-0.068;2022-12-07T05:32:25;100381.88;;;2.24;90.78
69842;BME280;57138;51.326;-0.068;2022-12-07T05:34:51;100369.34;;;2.16;90.91
69842;BME280;57138;51.326;-0.068;2022-12-07T05:37:16;100390.22;;;2.29;90.34
69842;BME280;57138;51.326;-0.068;2022-12-07T05:39:42;100396.22;;;2.31;90.31
69842;BME280;57138;51.326;-0.068;2022-12-07T05:42:10;100382.41;;;2.18;90.52
69842;BME280;57138;51.326;-0.068;2022-12-07T05:44:45;100417.50;;;2.39;90.99
69842;BME280;57138;51.326;-0.068;2022-12-07T05:47:12;100416.69;;;2.39;91.02
69842;BME280;57138;51.326;-0.068;2022-12-07T05:49:38;100388.25;;;2.21;90.67
69842;BME280;57138;51.326;-0.068;2022-12-07T05:52:03;100391.75;;;2.22;90.86
69842;BME280;57138;51.326;-0.068;2022-12-07T05:54:29;100376.56;;;2.14;90.77
69842;BME280;57138;51.326;-0.068;2022-12-07T05:56:54;100394.13;;;2.25;90.86
69842;BME280;57138;51.326;-0.068;2022-12-07T05:59:20;100414.44;;;2.34;90.87
69842;BME280;57138;51.326;-0.068;2022-12-07T06:04:20;100405.81;;;2.32;91.02
69842;BME280;57138;51.326;-0.068;2022-12-07T06:06:47;100398.88;;;2.31;90.57
69842;BME280;57138;51.326;-0.068;2022-12-07T06:09:14;100408.66;;;2.40;90.78
69842;BME280;57138;51.326;-0.068;2022-12-07T06:11:40;100390.22;;;2.29;90.69
69842;BME280;57138;51.326;-0.068;2022-12-07T06:14:24;100402.78;;;2.37;90.72
69842;BME280;57138;51.326;-0.068;2022-12-07T06:16:49;100398.88;;;2.31;90.66
69842;BME280;57138;51.326;-0.068;2022-12-07T06:19:15;100411.53;;;2.37;90.55
69842;BME280;57138;51.326;-0.068;2022-12-07T06:21:40;100382.13;;;2.21;90.43
69842;BME280;57138;51.326;-0.068;2022-12-07T06:24:06;100393.59;;;2.31;90.61
69842;BME280;57138;51.326;-0.068;2022-12-07T06:26:32;100384.50;;;2.24;90.90
69842;BME280;57138;51.326;-0.068;2022-12-07T06:28:57;100390.22;;;2.29;90.71
69842;BME280;57138;51.326;-0.068;2022-12-07T06:31:22;100407.22;;;2.36;90.99
69842;BME280;57138;51.326;-0.068;2022-12-07T06:33:48;100389.91;;;2.22;90.47
69842;BME280;57138;51.326;-0.068;2022-12-07T06:36:13;100405.53;;;2.35;90.71
69842;BME280;57138;51.326;-0.068;2022-12-07T06:38:39;100411.66;;;2.36;90.66
69842;BME280;57138;51.326;-0.068;2022-12-07T06:41:04;100413.19;;;2.38;90.37
69842;BME280;57138;51.326;-0.068;2022-12-07T06:43:30;100401.78;;;2.28;90.52
69842;BME280;57138;51.326;-0.068;2022-12-07T06:45:55;100394.13;;;2.25;90.43
69842;BME280;57138;51.326;-0.068;2022-12-07T06:48:20;100402.47;;;2.30;90.71
69842;BME280;57138;51.326;-0.068;2022-12-07T06:50:46;100409.44;;;2.31;90.31
69842;BME280;57138;51.326;-0.068;2022-12-07T06:53:12;100403.28;;;2.30;90.46
69842;BME280;57138;51.326;-0.068;2022-12-07T06:55:38;100425.56;;;2.38;90.37
69842;BME280;57138;51.326;-0.068;2022-12-07T06:58:03;100381.56;;;2.17;90.28
69842;BME280;57138;51.326;-0.068;2022-12-07T07:00:29;100416.56;;;2.40;89.77
69842;BME280;57138;51.326;-0.068;2022-12-07T07:02:56;100392.69;;;2.21;90.48
69842;BME280;57138;51.326;-0.068;2022-12-07T07:05:21;100408.56;;;2.30;90.04
69842;BME280;57138;51.326;-0.068;2022-12-07T07:07:48;100402.47;;;2.30;90.05
69842;BME280;57138;51.326;-0.068;2022-12-07T07:10:14;100396.34;;;2.29;90.35
69842;BME280;57138;51.326;-0.068;2022-12-07T07:12:39;100419.75;;;2.44;90.35
69842;BME280;57138;51.326;-0.068;2022-12-07T07:15:05;100373.19;;;2.12;89.88
69842;BME280;57138;51.326;-0.068;2022-12-07T07:17:31;100426.00;;;2.43;90.58
69842;BME280;57138;51.326;-0.068;2022-12-07T07:19:56;100407.91;;;2.38;90.15
69842;BME280;57138;51.326;-0.068;2022-12-07T07:22:22;100408.31;;;2.33;89.62
69842;BME280;57138;51.326;-0.068;2022-12-07T07:24:47;100432.00;;;2.45;90.15
69842;BME280;57138;51.326;-0.068;2022-12-07T07:27:12;100420.59;;;2.44;89.92
69842;BME280;57138;51.326;-0.068;2022-12-07T07:29:38;100395.63;;;2.27;90.25
69842;BME280;57138;51.326;-0.068;2022-12-07T07:32:03;100428.50;;;2.44;89.87
69842;BME280;57138;51.326;-0.068;2022-12-07T07:34:29;100423.50;;;2.41;90.38
69842;BME280;57138;51.326;-0.068;2022-12-07T07:36:55;100417.25;;;2.42;90.11
69842;BME280;57138;51.326;-0.068;2022-12-07T07:39:20;100410.81;;;2.35;90.23
69842;BME280;57138;51.326;-0.068;2022-12-07T07:41:46;100407.47;;;2.33;90.09
69842;BME280;57138;51.326;-0.068;2022-12-07T07:44:12;100403.94;;;2.23;90.09
69842;BME280;57138;51.326;-0.068;2022-12-07T07:46:37;100416.03;;;2.25;90.19
69842;BME280;57138;51.326;-0.068;2022-12-07T07:49:03;100433.88;;;2.33;90.27
69842;BME280;57138;51.326;-0.068;2022-12-07T07:51:28;100414.97;;;2.28;90.40
69842;BME280;57138;51.326;-0.068;2022-12-07T07:53:54;100432.53;;;2.39;90.47
69842;BME280;57138;51.326;-0.068;2022-12-07T07:56:19;100430.72;;;2.39;89.74
69842;BME280;57138;51.326;-0.068;2022-12-07T07:58:44;100429.75;;;2.40;90.46
69842;BME280;57138;51.326;-0.068;2022-12-07T08:01:10;100408.25;;;2.24;89.90
69842;BME280;57138;51.326;-0.068;2022-12-07T08:03:35;100437.81;;;2.39;90.09
69842;BME280;57138;51.326;-0.068;2022-12-07T08:06:04;100432.06;;;2.33;90.08
69842;BME280;57138;51.326;-0.068;2022-12-07T08:08:29;100382.88;;;2.02;90.21
69842;BME280;57138;51.326;-0.068;2022-12-07T08:10:55;100419.91;;;2.21;89.54
69842;BME280;57138;51.326;-0.068;2022-12-07T08:13:20;100422.41;;;2.23;89.84
69842;BME280;57138;51.326;-0.068;2022-12-07T08:15:47;100433.88;;;2.33;89.94
69842;BME280;57138;51.326;-0.068;2022-12-07T08:18:14;100401.13;;;2.14;89.98
69842;BME280;57138;51.326;-0.068;2022-12-07T08:20:41;100381.19;;;2.01;89.70
69842;BME280;57138;51.326;-0.068;2022-12-07T08:23:07;100413.09;;;2.19;89.80
69842;BME280;57138;51.326;-0.068;2022-12-07T08:25:33;100406.56;;;2.23;89.67
69842;BME280;57138;51.326;-0.068;2022-12-07T08:27:59;100390.97;;;2.10;89.56
69842;BME280;57138;51.326;-0.068;2022-12-07T08:30:27;100424.28;;;2.32;89.95
69842;BME280;57138;51.326;-0.068;2022-12-07T08:32:53;100404.47;;;2.16;89.84
69842;BME280;57138;51.326;-0.068;2022-12-07T08:35:18;100426.66;;;2.35;89.40
69842;BME280;57138;51.326;-0.068;2022-12-07T08:37:44;100425.13;;;2.32;90.05
69842;BME280;57138;51.326;-0.068;2022-12-07T08:40:11;100425.00;;;2.34;89.57
69842;BME280;57138;51.326;-0.068;2022-12-07T08:42:43;100419.97;;;2.31;89.40
69842;BME280;57138;51.326;-0.068;2022-12-07T08:45:12;100421.88;;;2.29;89.13
69842;BME280;57138;51.326;-0.068;2022-12-07T08:47:41;100388.63;;;2.16;88.66
69842;BME280;57138;51.326;-0.068;2022-12-07T08:50:09;100384.59;;;2.12;89.11
69842;BME280;57138;51.326;-0.068;2022-12-07T08:52:37;100416.88;;;2.26;89.59
69842;BME280;57138;51.326;-0.068;2022-12-07T08:55:03;100408.25;;;2.24;89.26
69842;BME280;57138;51.326;-0.068;2022-12-07T08:57:32;100415.22;;;2.25;89.19
69842;BME280;57138;51.326;-0.068;2022-12-07T08:59:59;100391.25;;;2.16;89.26
69842;BME280;57138;51.326;-0.068;2022-12-07T09:02:25;100402.28;;;2.22;89.09
69842;BME280;57138;51.326;-0.068;2022-12-07T09:04:50;100408.25;;;2.24;89.03
69842;BME280;57138;51.326;-0.068;2022-12-07T09:07:16;100404.66;;;2.25;88.93
69842;BME280;57138;51.326;-0.068;2022-12-07T09:09:42;100414.97;;;2.28;89.17
69842;BME280;57138;51.326;-0.068;2022-12-07T09:12:07;100405.09;;;2.30;89.08
69842;BME280;57138;51.326;-0.068;2022-12-07T09:14:33;100383.91;;;2.10;88.47
69842;BME280;57138;51.326;-0.068;2022-12-07T09:17:10;100411.06;;;2.32;89.14
69842;BME280;57138;51.326;-0.068;2022-12-07T09:19:36;100406.66;;;2.32;88.82
69842;BME280;57138;51.326;-0.068;2022-12-07T09:22:02;100395.75;;;2.26;88.24
69842;BME280;57138;51.326;-0.068;2022-12-07T09:24:30;100399.25;;;2.26;88.61
69842;BME280;57138;51.326;-0.068;2022-12-07T09:26:57;100412.75;;;2.33;88.19
69842;BME280;57138;51.326;-0.068;2022-12-07T09:29:22;100406.06;;;2.29;88.07
69842;BME280;57138;51.326;-0.068;2022-12-07T09:31:47;100425.00;;;2.34;88.22
69842;BME280;57138;51.326;-0.068;2022-12-07T09:34:13;100379.00;;;2.06;88.41
69842;BME280;57138;51.326;-0.068;2022-12-07T09:36:38;100402.28;;;2.22;88.48
69842;BME280;57138;51.326;-0.068;2022-12-07T09:39:04;100426.66;;;2.35;87.97
69842;BME280;57138;51.326;-0.068;2022-12-07T09:41:31;100408.56;;;2.30;88.44
69842;BME280;57138;51.326;-0.068;2022-12-07T09:44:10;100412.50;;;2.36;87.76
69842;BME280;57138;51.326;-0.068;2022-12-07T09:46:39;100417.00;;;2.45;87.91
69842;BME280;57138;51.326;-0.068;2022-12-07T09:49:12;100424.53;;;2.50;88.06
69842;BME280;57138;51.326;-0.068;2022-12-07T09:51:37;100405.00;;;2.41;87.53
69842;BME280;57138;51.326;-0.068;2022-12-07T09:54:03;100388.75;;;2.36;87.98
69842;BME280;57138;51.326;-0.068;2022-12-07T09:56:29;100404.06;;;2.42;87.16
69842;BME280;57138;51.326;-0.068;2022-12-07T09:59:00;100402.59;;;2.49;87.52
69842;BME280;57138;51.326;-0.068;2022-12-07T10:01:31;100416.91;;;2.57;87.94
69842;BME280;57138;51.326;-0.068;2022-12-07T10:06:43;100419.72;;;2.65;87.44
69842;BME280;57138;51.326;-0.068;2022-12-07T10:09:14;100407.50;;;2.64;87.07
69842;BME280;57138;51.326;-0.068;2022-12-07T10:12:00;100402.66;;;2.69;87.26
69842;BME280;57138;51.326;-0.068;2022-12-07T10:14:28;100405.72;;;2.74;86.69
69842;BME280;57138;51.326;-0.068;2022-12-07T10:16:54;100394.47;;;2.72;87.10
69842;BME280;57138;51.326;-0.068;2022-12-07T10:19:22;100397.53;;;2.77;86.79
69842;BME280;57138;51.326;-0.068;2022-12-07T10:22:14;100394.63;;;2.80;87.43
69842;BME280;57138;51.326;-0.068;2022-12-07T10:24:41;100392.69;;;2.82;87.38
69842;BME280;57138;51.326;-0.068;2022-12-07T10:27:19;100381.69;;;2.77;86.89
69842;BME280;57138;51.326;-0.068;2022-12-07T10:29:51;100391.72;;;2.83;85.98
69842;BME280;57138;51.326;-0.068;2022-12-07T10:34:42;100380.03;;;2.76;85.67
69842;BME280;57138;51.326;-0.068;2022-12-07T10:37:17;100362.66;;;2.74;85.35
69842;BME280;57138;51.326;-0.068;2022-12-07T10:40:01;100377.81;;;2.81;85.87
69842;BME280;57138;51.326;-0.068;2022-12-07T10:42:29;100376.59;;;2.85;86.23
69842;BME280;57138;51.326;-0.068;2022-12-07T10:47:51;100350.44;;;2.82;86.57
69842;BME280;57138;51.326;-0.068;2022-12-07T10:51:13;100363.41;;;2.95;86.21
69842;BME280;57138;51.326;-0.068;2022-12-07T10:53:50;100344.09;;;2.95;86.38
69842;BME280;57138;51.326;-0.068;2022-12-07T11:22:51;100331.44;;;2.88;85.38
69842;BME280;57138;51.326;-0.068;2022-12-07T11:38:52;100326.84;;;2.91;85.26
69842;BME280;57138;51.326;-0.068;2022-12-07T11:41:23;100285.94;;;2.75;85.19
69842;BME280;57138;51.326;-0.068;2022-12-07T11:43:58;100315.72;;;2.97;85.49
69842;BME280;57138;51.326;-0.068;2022-12-07T11:46:28;100311.13;;;2.99;84.89
69842;BME280;57138;51.326;-0.068;2022-12-07T11:49:09;100311.97;;;2.99;85.21
69842;BME280;57138;51.326;-0.068;2022-12-07T11:51:38;100312.53;;;3.03;85.17
69842;BME280;57138;51.326;-0.068;2022-12-07T11:54:22;100289.72;;;2.92;84.95
69842;BME280;57138;51.326;-0.068;2022-12-07T11:56:50;100254.81;;;2.79;84.83
69842;BME280;57138;51.326;-0.068;2022-12-07T11:59:31;100303.78;;;3.12;85.07
69842;BME280;57138;51.326;-0.068;2022-12-07T12:02:16;100308.53;;;3.18;84.32
69842;BME280;57138;51.326;-0.068;2022-12-07T12:04:58;100307.38;;;3.21;84.48
69842;BME280;57138;51.326;-0.068;2022-12-07T12:07:27;100290.16;;;3.17;84.44
69842;BME280;57138;51.326;-0.068;2022-12-07T12:10:02;100248.56;;;2.90;84.07
69842;BME280;57138;51.326;-0.068;2022-12-07T12:12:40;100292.66;;;3.18;84.40
69842;BME280;57138;51.326;-0.068;2022-12-07T12:20:42;100288.75;;;3.22;83.74
69842;BME280;57138;51.326;-0.068;2022-12-07T12:23:24;100279.88;;;3.23;83.95
69842;BME280;57138;51.326;-0.068;2022-12-07T12:25:57;100259.00;;;3.11;84.35
69842;BME280;57138;51.326;-0.068;2022-12-07T12:28:29;100251.78;;;3.13;83.97
69842;BME280;57138;51.326;-0.068;2022-12-07T12:33:32;100230.09;;;3.09;83.48
69842;BME280;57138;51.326;-0.068;2022-12-07T12:46:53;100247.59;;;3.30;83.68
69842;BME280;57138;51.326;-0.068;2022-12-07T12:51:55;100242.16;;;3.31;82.90
69842;BME280;57138;51.326;-0.068;2022-12-07T12:59:23;100235.50;;;3.37;83.73
69842;BME280;57138;51.326;-0.068;2022-12-07T13:01:51;100210.59;;;3.30;83.80
69842;BME280;57138;51.326;-0.068;2022-12-07T13:04:22;100227.00;;;3.43;83.97
69842;BME280;57138;51.326;-0.068;2022-12-07T13:06:50;100220.31;;;3.39;83.50
69842;BME280;57138;51.326;-0.068;2022-12-07T13:09:41;100213.78;;;3.33;83.13
69842;BME280;57138;51.326;-0.068;2022-12-07T13:12:12;100213.63;;;3.35;83.35
69842;BME280;57138;51.326;-0.068;2022-12-07T13:14:52;100199.47;;;3.26;83.41
69842;BME280;57138;51.326;-0.068;2022-12-07T13:19:56;100208.06;;;3.38;82.55
69842;BME280;57138;51.326;-0.068;2022-12-07T13:22:48;100196.69;;;3.37;82.87
69842;BME280;57138;51.326;-0.068;2022-12-07T13:25:35;100195.84;;;3.37;82.74
69842;BME280;57138;51.326;-0.068;2022-12-07T13:28:18;100193.88;;;3.39;82.85
69842;BME280;57138;51.326;-0.068;2022-12-07T13:30:58;100167.50;;;3.29;83.14
69842;BME280;57138;51.326;-0.068;2022-12-07T13:33:27;100184.13;;;3.39;82.79
69842;BME280;57138;51.326;-0.068;2022-12-07T13:35:55;100150.13;;;3.17;83.16
69842;BME280;57138;51.326;-0.068;2022-12-07T13:38:32;100176.50;;;3.36;82.51
69842;BME280;57138;51.326;-0.068;2022-12-07T13:41:12;100174.13;;;3.33;82.76
69842;BME280;57138;51.326;-0.068;2022-12-07T13:46:35;100159.00;;;3.26;82.63
69842;BME280;57138;51.326;-0.068;2022-12-07T13:49:38;100139.97;;;3.22;83.02
69842;BME280;57138;51.326;-0.068;2022-12-07T13:55:08;100156.91;;;3.29;82.88
69842;BME280;57138;51.326;-0.068;2022-12-07T13:57:38;100133.84;;;3.21;82.67
69842;BME280;57138;51.326;-0.068;2022-12-07T14:00:13;100145.22;;;3.32;82.97
69842;BME280;57138;51.326;-0.068;2022-12-07T14:02:54;100150.22;;;3.35;82.35
69842;BME280;57138;51.326;-0.068;2022-12-07T14:05:26;100137.13;;;3.33;83.08
69842;BME280;57138;51.326;-0.068;2022-12-07T14:07:56;100139.06;;;3.41;82.84
69842;BME280;57138;51.326;-0.068;2022-12-07T14:10:29;100139.63;;;3.45;83.50
69842;BME280;57138;51.326;-0.068;2022-12-07T14:12:55;100108.66;;;3.27;82.69
69842;BME280;57138;51.326;-0.068;2022-12-07T14:15:24;100138.78;;;3.54;83.38
69842;BME280;57138;51.326;-0.068;2022-12-07T14:17:52;100141.66;;;3.60;83.50
69842;BME280;57138;51.326;-0.068;2022-12-07T14:20:38;100132.31;;;3.66;83.21
69842;BME280;57138;51.326;-0.068;2022-12-07T14:23:06;100125.59;;;3.72;83.01
69842;BME280;57138;51.326;-0.068;2022-12-07T14:25:51;100126.13;;;3.75;82.62
69842;BME280;57138;51.326;-0.068;2022-12-07T14:28:28;100099.06;;;3.64;83.10
69842;BME280;57138;51.326;-0.068;2022-12-07T14:30:54;100094.44;;;3.66;82.53
69842;BME280;57138;51.326;-0.068;2022-12-07T14:33:21;100089.97;;;3.76;82.75
69842;BME280;57138;51.326;-0.068;2022-12-07T14:35:47;100103.56;;;3.81;82.36
69842;BME280;57138;51.326;-0.068;2022-12-07T14:38:12;100100.63;;;3.84;82.73
69842;BME280;57138;51.326;-0.068;2022-12-07T14:40:38;100068.88;;;3.66;82.19
69842;BME280;57138;51.326;-0.068;2022-12-07T14:43:15;100105.69;;;3.95;82.11
69842;BME280;57138;51.326;-0.068;2022-12-07T14:45:41;100106.41;;;3.98;82.60
69842;BME280;57138;51.326;-0.068;2022-12-07T14:48:10;100071.53;;;3.84;82.16
69842;BME280;57138;51.326;-0.068;2022-12-07T14:50:39;100094.53;;;4.02;82.31
69842;BME280;57138;51.326;-0.068;2022-12-07T14:53:14;100087.88;;;3.98;81.62